»·PEaware :: WAT169 KLAS-KSAN

WAT169 :: KLAS-KSAN

FLIGHT INFORMATION

Flight Status: Arrived
Operator:
Walker Air Transport
More flights by this operator :: More flights under this callsign
Pilot: Marty P. (27464)
Aircraft: BOEING 737-800
(B738)
More flights by this aircraft type
Origin: KLAS McCarran Intl
United States
Destination: KSAN San Diego Intl-Lindbergh
United States
More flights between these airports :: More routes between these airports
Route: BOACH8 LVELL LUCKI1
File this flight plan on PilotEdge
Remarks:
Altitude:
(Current/Filed)
28,000ft
Speed:
(Current/Filed)
470kts
Departed: 21-Jun-20 08:18 AM
Arrived: 21-Jun-20 09:01 AM
Distance/Time
Traveled:
225nm/0:43
Distance/Time
To Go:
Arrived

Flight Plot

Page will automatically refresh every two minutes.

Flight plan parsing failed; only flown route is shown


Map Options




Map Legend


Flown Route
Filed Route
Departure Airport
Arrival Airport
Navaid (VOR, NDB)
Fix

Horizontal Profiles

Position Reports

Time Latitude Longitude Heading Altitude Ground
Speed
21-Jun-20 07:47 36.080313 -115.147275 61 2191ft 0kts
21-Jun-20 07:48 36.080313 -115.147275 61 2191ft 0kts
21-Jun-20 07:49 36.080313 -115.147275 61 2191ft 0kts
21-Jun-20 07:50 36.080313 -115.147275 61 2191ft 0kts
21-Jun-20 07:51 36.080313 -115.147275 61 2191ft 0kts
21-Jun-20 07:51 36.080313 -115.147275 61 2191ft 0kts
21-Jun-20 07:53 36.080313 -115.147275 61 2191ft 0kts
21-Jun-20 07:53 36.080313 -115.147275 61 2191ft 0kts
21-Jun-20 07:55 36.080313 -115.147275 61 2191ft 0kts
21-Jun-20 07:55 36.080313 -115.147275 61 2191ft 0kts
21-Jun-20 07:56 36.080313 -115.147275 61 2191ft 0kts
21-Jun-20 07:57 36.080313 -115.147275 61 2191ft 0kts
21-Jun-20 07:58 36.080313 -115.147275 61 2191ft 0kts
21-Jun-20 07:59 36.080313 -115.147275 61 2191ft 0kts
21-Jun-20 08:00 36.080313 -115.147275 61 2191ft 0kts
21-Jun-20 08:01 36.080313 -115.147275 61 2191ft 0kts
21-Jun-20 08:02 36.080313 -115.147275 61 2191ft 0kts
21-Jun-20 08:03 36.080313 -115.147275 61 2191ft 0kts
21-Jun-20 08:04 36.080263 -115.147389 61 2191ft 2kts
21-Jun-20 08:05 36.080285 -115.148059 141 2191ft 2kts
21-Jun-20 08:06 36.080416 -115.148150 156 2191ft 0kts
21-Jun-20 08:07 36.080315 -115.148090 154 2191ft 1kts
21-Jun-20 08:08 36.080196 -115.148022 155 2191ft 0kts
21-Jun-20 08:09 36.079431 -115.147585 155 2191ft 10kts
21-Jun-20 08:10 36.078344 -115.144592 94 2191ft 13kts
21-Jun-20 08:11 36.078267 -115.140498 89 2191ft 9kts
21-Jun-20 08:12 36.078269 -115.137705 90 2191ft 10kts
21-Jun-20 08:13 36.078273 -115.132789 90 2191ft 15kts
21-Jun-20 08:14 36.078271 -115.128088 90 2191ft 12kts
21-Jun-20 08:15 36.078141 -115.122550 122 2191ft 11kts
21-Jun-20 08:16 36.077461 -115.121507 139 2191ft 6kts
21-Jun-20 08:17 36.076411 -115.132747 270 2191ft 137kts
21-Jun-20 08:18 36.076550 -115.198138 270 4020ft 234kts
21-Jun-20 08:19 36.043059 -115.269206 202 7013ft 267kts
21-Jun-20 08:20 35.974039 -115.297944 194 7316ft 275kts
21-Jun-20 08:21 35.900510 -115.309030 186 11058ft 274kts
21-Jun-20 08:22 35.813029 -115.309705 173 11876ft 364kts
21-Jun-20 08:23 35.708891 -115.297988 174 14299ft 385kts
21-Jun-20 08:24 35.600326 -115.297184 182 16726ft 398kts
21-Jun-20 08:25 35.486610 -115.299619 182 18677ft 418kts
21-Jun-20 08:26 35.369028 -115.302640 183 20703ft 431kts
21-Jun-20 08:27 35.247565 -115.308597 184 22577ft 443kts
21-Jun-20 08:28 35.123438 -115.315604 183 24224ft 455kts
21-Jun-20 08:29 34.995680 -115.321320 183 25840ft 464kts
21-Jun-20 08:30 34.868163 -115.327016 186 27212ft 473kts
21-Jun-20 08:31 34.739380 -115.357504 197 27917ft 476kts
21-Jun-20 08:32 34.612289 -115.406971 200 27979ft 483kts
21-Jun-20 08:33 34.485032 -115.461013 201 28054ft 489kts
21-Jun-20 08:34 34.356892 -115.518633 206 28054ft 491kts
21-Jun-20 08:35 34.236616 -115.595972 204 28054ft 491kts
21-Jun-20 08:36 34.113050 -115.658890 203 28055ft 491kts
21-Jun-20 08:37 33.987681 -115.719506 202 27967ft 491kts
21-Jun-20 08:38 33.860177 -115.780860 203 27862ft 489kts
21-Jun-20 08:39 33.734093 -115.842378 202 27862ft 490kts
21-Jun-20 08:40 33.610615 -115.900011 201 25823ft 468kts
21-Jun-20 08:41 33.507531 -115.981730 227 23625ft 420kts
21-Jun-20 08:42 33.433969 -116.089670 234 22579ft 418kts
21-Jun-20 08:43 33.367703 -116.199767 234 20084ft 400kts
21-Jun-20 08:44 33.284031 -116.280960 207 18044ft 388kts
21-Jun-20 08:45 33.187519 -116.337973 206 16187ft 385kts
21-Jun-20 08:46 33.094267 -116.392517 206 13956ft 364kts
21-Jun-20 08:47 33.009972 -116.442547 212 12759ft 299kts
21-Jun-20 08:48 32.950290 -116.499916 221 12054ft 267kts
21-Jun-20 08:49 32.893771 -116.557048 220 10898ft 271kts
21-Jun-20 08:50 32.836712 -116.614507 220 9670ft 269kts
21-Jun-20 08:51 32.780248 -116.672306 227 8412ft 269kts
21-Jun-20 08:52 32.740919 -116.747315 241 7134ft 261kts
21-Jun-20 08:53 32.707868 -116.817961 245 5978ft 232kts
21-Jun-20 08:54 32.685201 -116.889803 251 4880ft 233kts
21-Jun-20 08:55 32.677050 -116.960746 286 3854ft 218kts
21-Jun-20 08:56 32.693906 -117.026624 286 2767ft 191kts
21-Jun-20 08:57 32.706131 -117.076891 287 1926ft 151kts
21-Jun-20 08:58 32.717903 -117.125215 288 1001ft 150kts
21-Jun-20 08:59 32.729432 -117.172733 287 218ft 148kts
21-Jun-20 09:00 32.735050 -117.198462 251 27ft 8kts
21-Jun-20 09:01 32.735396 -117.201508 285 27ft 16kts
21-Jun-20 09:02 32.734547 -117.203459 227 27ft 1kts
21-Jun-20 09:03 32.734496 -117.203527 228 27ft 0kts

Navigation Log

Ident Type
Flight plan parsing failed, navigation log unavailable